Cuneyt Solakoglu — TCTN4 — position and weather

sailwx.info

Track history (hours):
 
Tides and Currents Weather Stations Pressure Air Temp Water Temp Dewpoint Dewpoint Depression Visibility Wind Speed Wind Dir Waves Ship Positions

Cuneyt Solakoglu

Last reported at 2014-Oct-22 16:33 UTC. Time now 2014-Oct-23 00:05 UTC.
Position N 37°51' E 024°37'.

Length 193 m; draft 6.5 m.

Type: Ship (hazmat cat A). MMSI: 271002676.

Date/timePositionNaut miles runAvg speedWind from/ knotsBaromVisibWave heightAir tempDewpointWater temp
2014-Oct-22 16:33N 37°51' E 024°37'1717.3
2014-Oct-22 15:33N 37°35' E 024°27'1111.5
2014-Oct-22 14:33N 37°26' E 024°18'1312.7
2014-Oct-22 13:32N 37°16' E 024°08'  
2014-Oct-18 15:17N 36°45' E 023°28'1520.0
2014-Oct-18 14:33N 36°57' E 023°37'2020.1
2014-Oct-18 13:33N 37°14' E 023°51'2020.4
2014-Oct-18 12:33N 37°31' E 024°05'2319.6
2014-Oct-18 11:24N 37°49' E 024°23'14020.4
2014-Oct-18 04:33N 39°51' E 025°49'2019.0
2014-Oct-18 03:31N 40°02' E 026°11'  
2014-Oct-15 22:25N 39°15' E 025°30'2519.1
2014-Oct-15 21:05N 38°52' E 025°15'6718.9
2014-Oct-15 17:33N 37°53' E 024°36'1919.0
2014-Oct-15 16:33N 37°35' E 024°27'1919.2
2014-Oct-15 15:33N 37°20' E 024°13'2119.0
2014-Oct-15 14:28N 37°03' E 023°56'1718.6
2014-Oct-15 13:33N 36°50' E 023°43'1919.0
2014-Oct-15 12:33N 36°36' E 023°28'1918.6
2014-Oct-15 11:33N 36°23' E 023°11'2019.6
2014-Oct-15 10:33N 36°23' E 022°47'  
Track history (hours):
 
Tides and Currents Weather Stations Pressure Air Temp Water Temp Dewpoint Dewpoint Depression Visibility Wind Speed Wind Dir Waves Ship Positions

Cuneyt Solakoglu

Last reported at 2014-Oct-22 16:33 UTC. Time now 2014-Oct-23 00:05 UTC.
Position N 37°51' E 024°37'.

Length 193 m; draft 6.5 m.

Type: Ship (hazmat cat A). MMSI: 271002676.

Date/timePositionNaut miles runAvg speedWind from/ knotsBaromVisibWave heightAir tempDewpointWater temp
2014-Oct-22 16:33N 37°51' E 024°37'1717.3
2014-Oct-22 15:33N 37°35' E 024°27'1111.5
2014-Oct-22 14:33N 37°26' E 024°18'1312.7
2014-Oct-22 13:32N 37°16' E 024°08'  
2014-Oct-18 15:17N 36°45' E 023°28'1520.0
2014-Oct-18 14:33N 36°57' E 023°37'2020.1
2014-Oct-18 13:33N 37°14' E 023°51'2020.4
2014-Oct-18 12:33N 37°31' E 024°05'2319.6
2014-Oct-18 11:24N 37°49' E 024°23'14020.4
2014-Oct-18 04:33N 39°51' E 025°49'2019.0
2014-Oct-18 03:31N 40°02' E 026°11'  
2014-Oct-15 22:25N 39°15' E 025°30'2519.1
2014-Oct-15 21:05N 38°52' E 025°15'6718.9
2014-Oct-15 17:33N 37°53' E 024°36'1919.0
2014-Oct-15 16:33N 37°35' E 024°27'1919.2
2014-Oct-15 15:33N 37°20' E 024°13'2119.0
2014-Oct-15 14:28N 37°03' E 023°56'1718.6
2014-Oct-15 13:33N 36°50' E 023°43'1919.0
2014-Oct-15 12:33N 36°36' E 023°28'1918.6
2014-Oct-15 11:33N 36°23' E 023°11'2019.6
2014-Oct-15 10:33N 36°23' E 022°47'  

Dump ship's entire track history